sensor_id;sensor_type;location;lat;lon;timestamp;P1;durP1;ratioP1;P2;durP2;ratioP2
18166;SDS011;9208;42.688;23.404;2022-07-24T00:01:26;12.93;;;7.20;;
18166;SDS011;9208;42.688;23.404;2022-07-24T00:03:51;9.77;;;7.00;;
18166;SDS011;9208;42.688;23.404;2022-07-24T00:06:17;10.43;;;6.80;;
18166;SDS011;9208;42.688;23.404;2022-07-24T00:08:42;12.33;;;7.10;;
18166;SDS011;9208;42.688;23.404;2022-07-24T00:11:08;10.27;;;7.37;;
18166;SDS011;9208;42.688;23.404;2022-07-24T00:13:33;9.30;;;6.73;;
18166;SDS011;9208;42.688;23.404;2022-07-24T00:15:59;11.27;;;6.70;;
18166;SDS011;9208;42.688;23.404;2022-07-24T00:18:24;10.57;;;6.67;;
18166;SDS011;9208;42.688;23.404;2022-07-24T00:20:50;12.93;;;7.07;;
18166;SDS011;9208;42.688;23.404;2022-07-24T00:23:15;11.50;;;6.63;;
18166;SDS011;9208;42.688;23.404;2022-07-24T00:25:41;9.47;;;6.37;;
18166;SDS011;9208;42.688;23.404;2022-07-24T00:28:06;8.80;;;6.70;;
18166;SDS011;9208;42.688;23.404;2022-07-24T00:30:32;8.77;;;5.90;;
18166;SDS011;9208;42.688;23.404;2022-07-24T00:32:57;8.47;;;6.10;;
18166;SDS011;9208;42.688;23.404;2022-07-24T00:35:23;7.53;;;5.30;;
18166;SDS011;9208;42.688;23.404;2022-07-24T00:37:48;9.63;;;5.83;;
18166;SDS011;9208;42.688;23.404;2022-07-24T00:40:14;8.27;;;5.63;;
18166;SDS011;9208;42.688;23.404;2022-07-24T00:42:41;9.10;;;6.37;;
18166;SDS011;9208;42.688;23.404;2022-07-24T00:45:08;7.70;;;6.13;;
18166;SDS011;9208;42.688;23.404;2022-07-24T00:47:34;8.23;;;6.47;;
18166;SDS011;9208;42.688;23.404;2022-07-24T00:49:59;7.27;;;6.00;;
18166;SDS011;9208;42.688;23.404;2022-07-24T00:52:25;7.80;;;6.20;;
18166;SDS011;9208;42.688;23.404;2022-07-24T00:54:51;7.50;;;6.43;;
18166;SDS011;9208;42.688;23.404;2022-07-24T00:57:17;8.97;;;6.07;;
18166;SDS011;9208;42.688;23.404;2022-07-24T00:59:43;8.37;;;6.37;;
18166;SDS011;9208;42.688;23.404;2022-07-24T01:02:08;9.50;;;6.40;;
18166;SDS011;9208;42.688;23.404;2022-07-24T01:04:34;7.57;;;5.87;;
18166;SDS011;9208;42.688;23.404;2022-07-24T01:06:59;8.93;;;6.37;;
18166;SDS011;9208;42.688;23.404;2022-07-24T01:09:25;9.57;;;6.40;;
18166;SDS011;9208;42.688;23.404;2022-07-24T01:11:51;10.47;;;6.07;;
18166;SDS011;9208;42.688;23.404;2022-07-24T01:14:17;7.93;;;6.23;;
18166;SDS011;9208;42.688;23.404;2022-07-24T01:16:43;12.83;;;6.93;;
18166;SDS011;9208;42.688;23.404;2022-07-24T01:19:08;10.57;;;6.27;;
18166;SDS011;9208;42.688;23.404;2022-07-24T01:21:37;8.87;;;6.60;;
18166;SDS011;9208;42.688;23.404;2022-07-24T01:24:03;7.30;;;6.47;;
18166;SDS011;9208;42.688;23.404;2022-07-24T01:26:29;13.57;;;6.07;;
18166;SDS011;9208;42.688;23.404;2022-07-24T01:28:55;10.67;;;6.90;;
18166;SDS011;9208;42.688;23.404;2022-07-24T01:31:20;10.53;;;6.73;;
18166;SDS011;9208;42.688;23.404;2022-07-24T01:33:46;12.00;;;7.20;;
18166;SDS011;9208;42.688;23.404;2022-07-24T01:36:11;9.53;;;6.93;;
18166;SDS011;9208;42.688;23.404;2022-07-24T01:38:37;7.70;;;6.40;;
18166;SDS011;9208;42.688;23.404;2022-07-24T01:41:02;9.13;;;6.53;;
18166;SDS011;9208;42.688;23.404;2022-07-24T01:43:28;10.80;;;6.73;;
18166;SDS011;9208;42.688;23.404;2022-07-24T01:45:54;8.37;;;6.20;;
18166;SDS011;9208;42.688;23.404;2022-07-24T01:48:19;12.73;;;6.50;;
18166;SDS011;9208;42.688;23.404;2022-07-24T01:50:45;10.93;;;7.13;;
18166;SDS011;9208;42.688;23.404;2022-07-24T01:53:10;9.07;;;6.77;;
18166;SDS011;9208;42.688;23.404;2022-07-24T01:55:36;10.07;;;7.30;;
18166;SDS011;9208;42.688;23.404;2022-07-24T01:58:01;10.00;;;6.77;;
18166;SDS011;9208;42.688;23.404;2022-07-24T02:00:27;12.43;;;7.27;;
18166;SDS011;9208;42.688;23.404;2022-07-24T02:02:52;8.60;;;7.20;;
18166;SDS011;9208;42.688;23.404;2022-07-24T02:05:17;12.70;;;6.83;;
18166;SDS011;9208;42.688;23.404;2022-07-24T02:07:43;11.53;;;6.53;;
18166;SDS011;9208;42.688;23.404;2022-07-24T02:10:10;7.80;;;7.00;;
18166;SDS011;9208;42.688;23.404;2022-07-24T02:12:37;10.83;;;6.60;;
18166;SDS011;9208;42.688;23.404;2022-07-24T02:15:03;8.07;;;6.33;;
18166;SDS011;9208;42.688;23.404;2022-07-24T02:17:30;7.77;;;6.33;;
18166;SDS011;9208;42.688;23.404;2022-07-24T02:19:55;9.47;;;6.40;;
18166;SDS011;9208;42.688;23.404;2022-07-24T02:22:20;12.43;;;7.07;;
18166;SDS011;9208;42.688;23.404;2022-07-24T02:24:46;9.93;;;7.27;;
18166;SDS011;9208;42.688;23.404;2022-07-24T02:27:11;9.33;;;6.73;;
18166;SDS011;9208;42.688;23.404;2022-07-24T02:29:37;12.77;;;7.20;;
18166;SDS011;9208;42.688;23.404;2022-07-24T02:32:02;9.63;;;7.50;;
18166;SDS011;9208;42.688;23.404;2022-07-24T02:34:28;10.20;;;6.93;;
18166;SDS011;9208;42.688;23.404;2022-07-24T02:36:56;11.57;;;7.87;;
18166;SDS011;9208;42.688;23.404;2022-07-24T02:39:21;10.03;;;7.63;;
18166;SDS011;9208;42.688;23.404;2022-07-24T02:41:47;11.73;;;7.90;;
18166;SDS011;9208;42.688;23.404;2022-07-24T02:44:12;9.70;;;6.93;;
18166;SDS011;9208;42.688;23.404;2022-07-24T02:46:38;10.40;;;7.60;;
18166;SDS011;9208;42.688;23.404;2022-07-24T02:49:03;11.27;;;6.83;;
18166;SDS011;9208;42.688;23.404;2022-07-24T02:51:29;12.37;;;7.83;;
18166;SDS011;9208;42.688;23.404;2022-07-24T02:53:54;10.13;;;7.90;;
18166;SDS011;9208;42.688;23.404;2022-07-24T02:56:19;16.70;;;7.60;;
18166;SDS011;9208;42.688;23.404;2022-07-24T02:58:45;10.23;;;7.50;;
18166;SDS011;9208;42.688;23.404;2022-07-24T03:01:10;9.73;;;7.13;;
18166;SDS011;9208;42.688;23.404;2022-07-24T03:03:36;13.43;;;7.83;;
18166;SDS011;9208;42.688;23.404;2022-07-24T03:06:01;10.97;;;7.33;;
18166;SDS011;9208;42.688;23.404;2022-07-24T03:08:26;9.97;;;7.47;;
18166;SDS011;9208;42.688;23.404;2022-07-24T03:10:52;10.63;;;7.10;;
18166;SDS011;9208;42.688;23.404;2022-07-24T03:13:17;13.87;;;8.10;;
18166;SDS011;9208;42.688;23.404;2022-07-24T03:15:43;10.57;;;8.47;;
18166;SDS011;9208;42.688;23.404;2022-07-24T03:18:08;12.00;;;8.00;;
18166;SDS011;9208;42.688;23.404;2022-07-24T03:20:34;10.70;;;8.47;;
18166;SDS011;9208;42.688;23.404;2022-07-24T03:22:59;11.33;;;8.17;;
18166;SDS011;9208;42.688;23.404;2022-07-24T03:25:25;9.87;;;7.13;;
18166;SDS011;9208;42.688;23.404;2022-07-24T03:27:51;8.50;;;7.30;;
18166;SDS011;9208;42.688;23.404;2022-07-24T03:30:17;10.60;;;8.30;;
18166;SDS011;9208;42.688;23.404;2022-07-24T03:32:42;10.83;;;8.70;;
18166;SDS011;9208;42.688;23.404;2022-07-24T03:35:09;9.00;;;8.03;;
18166;SDS011;9208;42.688;23.404;2022-07-24T03:37:35;12.93;;;8.87;;
18166;SDS011;9208;42.688;23.404;2022-07-24T03:40:01;10.73;;;9.03;;
18166;SDS011;9208;42.688;23.404;2022-07-24T03:42:27;11.87;;;8.70;;
18166;SDS011;9208;42.688;23.404;2022-07-24T03:44:52;13.03;;;8.70;;
18166;SDS011;9208;42.688;23.404;2022-07-24T03:47:18;12.30;;;8.30;;
18166;SDS011;9208;42.688;23.404;2022-07-24T03:49:43;11.43;;;9.10;;
18166;SDS011;9208;42.688;23.404;2022-07-24T03:52:09;9.73;;;8.07;;
18166;SDS011;9208;42.688;23.404;2022-07-24T03:54:34;11.23;;;8.13;;
18166;SDS011;9208;42.688;23.404;2022-07-24T03:57:00;10.47;;;7.90;;
18166;SDS011;9208;42.688;23.404;2022-07-24T03:59:25;8.83;;;7.93;;
18166;SDS011;9208;42.688;23.404;2022-07-24T04:01:51;12.00;;;7.70;;
18166;SDS011;9208;42.688;23.404;2022-07-24T04:04:16;10.53;;;8.17;;
18166;SDS011;9208;42.688;23.404;2022-07-24T04:06:42;11.57;;;8.30;;
18166;SDS011;9208;42.688;23.404;2022-07-24T04:09:07;11.77;;;8.10;;
18166;SDS011;9208;42.688;23.404;2022-07-24T04:11:33;10.53;;;7.50;;
18166;SDS011;9208;42.688;23.404;2022-07-24T04:13:59;10.47;;;7.97;;
18166;SDS011;9208;42.688;23.404;2022-07-24T04:16:25;9.67;;;8.30;;
18166;SDS011;9208;42.688;23.404;2022-07-24T04:18:50;8.93;;;7.60;;
18166;SDS011;9208;42.688;23.404;2022-07-24T04:21:16;11.87;;;8.20;;
18166;SDS011;9208;42.688;23.404;2022-07-24T04:23:42;13.13;;;8.03;;
18166;SDS011;9208;42.688;23.404;2022-07-24T04:26:08;8.67;;;7.60;;
18166;SDS011;9208;42.688;23.404;2022-07-24T04:28:33;11.43;;;8.40;;
18166;SDS011;9208;42.688;23.404;2022-07-24T04:30:59;7.93;;;7.17;;
18166;SDS011;9208;42.688;23.404;2022-07-24T04:33:24;11.23;;;7.80;;
18166;SDS011;9208;42.688;23.404;2022-07-24T04:35:50;10.93;;;7.60;;
18166;SDS011;9208;42.688;23.404;2022-07-24T04:38:15;10.20;;;7.57;;
18166;SDS011;9208;42.688;23.404;2022-07-24T04:40:44;10.83;;;8.20;;
18166;SDS011;9208;42.688;23.404;2022-07-24T04:43:09;8.77;;;7.87;;
18166;SDS011;9208;42.688;23.404;2022-07-24T04:45:35;9.00;;;7.63;;
18166;SDS011;9208;42.688;23.404;2022-07-24T04:48:00;10.83;;;8.20;;
18166;SDS011;9208;42.688;23.404;2022-07-24T04:50:27;9.00;;;7.83;;
18166;SDS011;9208;42.688;23.404;2022-07-24T04:52:52;11.20;;;7.50;;
18166;SDS011;9208;42.688;23.404;2022-07-24T04:55:17;9.13;;;7.73;;
18166;SDS011;9208;42.688;23.404;2022-07-24T04:57:43;9.30;;;7.43;;
18166;SDS011;9208;42.688;23.404;2022-07-24T05:00:09;8.20;;;7.40;;
18166;SDS011;9208;42.688;23.404;2022-07-24T05:02:36;15.37;;;8.63;;
18166;SDS011;9208;42.688;23.404;2022-07-24T05:05:02;10.07;;;7.60;;
18166;SDS011;9208;42.688;23.404;2022-07-24T05:07:28;9.53;;;7.57;;
18166;SDS011;9208;42.688;23.404;2022-07-24T05:09:53;9.87;;;8.00;;
18166;SDS011;9208;42.688;23.404;2022-07-24T05:12:18;11.07;;;7.37;;
18166;SDS011;9208;42.688;23.404;2022-07-24T05:14:44;13.37;;;8.03;;
18166;SDS011;9208;42.688;23.404;2022-07-24T05:17:09;12.73;;;7.97;;
18166;SDS011;9208;42.688;23.404;2022-07-24T05:19:35;8.57;;;7.67;;
18166;SDS011;9208;42.688;23.404;2022-07-24T05:22:01;15.97;;;8.00;;
18166;SDS011;9208;42.688;23.404;2022-07-24T05:24:27;9.63;;;7.63;;
18166;SDS011;9208;42.688;23.404;2022-07-24T05:26:53;9.10;;;7.40;;
18166;SDS011;9208;42.688;23.404;2022-07-24T05:29:18;11.07;;;8.00;;
18166;SDS011;9208;42.688;23.404;2022-07-24T05:31:50;10.97;;;7.90;;
18166;SDS011;9208;42.688;23.404;2022-07-24T05:34:16;10.63;;;7.80;;
18166;SDS011;9208;42.688;23.404;2022-07-24T05:36:42;9.43;;;7.80;;
18166;SDS011;9208;42.688;23.404;2022-07-24T05:39:07;10.80;;;7.77;;
18166;SDS011;9208;42.688;23.404;2022-07-24T05:41:33;11.27;;;7.70;;
18166;SDS011;9208;42.688;23.404;2022-07-24T05:43:58;10.40;;;8.03;;
18166;SDS011;9208;42.688;23.404;2022-07-24T05:46:23;9.20;;;8.00;;
18166;SDS011;9208;42.688;23.404;2022-07-24T05:48:49;14.73;;;9.17;;
18166;SDS011;9208;42.688;23.404;2022-07-24T05:51:14;20.97;;;9.27;;
18166;SDS011;9208;42.688;23.404;2022-07-24T05:53:40;12.80;;;7.90;;
18166;SDS011;9208;42.688;23.404;2022-07-24T05:56:06;12.10;;;7.67;;
18166;SDS011;9208;42.688;23.404;2022-07-24T05:58:31;11.67;;;8.00;;
18166;SDS011;9208;42.688;23.404;2022-07-24T06:00:59;10.53;;;7.20;;
18166;SDS011;9208;42.688;23.404;2022-07-24T06:03:25;14.23;;;8.27;;
18166;SDS011;9208;42.688;23.404;2022-07-24T06:05:50;11.10;;;8.03;;
18166;SDS011;9208;42.688;23.404;2022-07-24T06:08:16;8.60;;;7.67;;
18166;SDS011;9208;42.688;23.404;2022-07-24T06:10:41;9.47;;;8.10;;
18166;SDS011;9208;42.688;23.404;2022-07-24T06:13:07;14.80;;;8.27;;
18166;SDS011;9208;42.688;23.404;2022-07-24T06:15:32;15.43;;;8.03;;
18166;SDS011;9208;42.688;23.404;2022-07-24T06:17:58;11.83;;;8.97;;
18166;SDS011;9208;42.688;23.404;2022-07-24T06:20:24;12.13;;;8.37;;
18166;SDS011;9208;42.688;23.404;2022-07-24T06:22:49;12.47;;;8.10;;
18166;SDS011;9208;42.688;23.404;2022-07-24T06:25:15;12.20;;;8.43;;
18166;SDS011;9208;42.688;23.404;2022-07-24T06:27:45;11.77;;;8.57;;
18166;SDS011;9208;42.688;23.404;2022-07-24T06:30:13;11.37;;;7.63;;
18166;SDS011;9208;42.688;23.404;2022-07-24T06:32:39;13.17;;;8.40;;
18166;SDS011;9208;42.688;23.404;2022-07-24T06:35:05;21.20;;;9.93;;
18166;SDS011;9208;42.688;23.404;2022-07-24T06:37:30;13.93;;;8.13;;
18166;SDS011;9208;42.688;23.404;2022-07-24T06:39:56;12.93;;;9.00;;
18166;SDS011;9208;42.688;23.404;2022-07-24T06:42:21;10.83;;;8.23;;
18166;SDS011;9208;42.688;23.404;2022-07-24T06:44:47;10.60;;;8.27;;
18166;SDS011;9208;42.688;23.404;2022-07-24T06:47:12;12.57;;;8.70;;
18166;SDS011;9208;42.688;23.404;2022-07-24T06:49:38;11.17;;;8.63;;
18166;SDS011;9208;42.688;23.404;2022-07-24T06:52:03;14.57;;;8.80;;
18166;SDS011;9208;42.688;23.404;2022-07-24T06:54:29;12.67;;;8.30;;
18166;SDS011;9208;42.688;23.404;2022-07-24T06:56:54;11.30;;;8.67;;
18166;SDS011;9208;42.688;23.404;2022-07-24T06:59:20;12.33;;;8.57;;
18166;SDS011;9208;42.688;23.404;2022-07-24T07:01:45;12.47;;;8.70;;
18166;SDS011;9208;42.688;23.404;2022-07-24T07:04:11;10.40;;;8.10;;
18166;SDS011;9208;42.688;23.404;2022-07-24T07:06:36;12.30;;;8.50;;
18166;SDS011;9208;42.688;23.404;2022-07-24T07:09:02;11.93;;;8.20;;
18166;SDS011;9208;42.688;23.404;2022-07-24T07:11:27;9.80;;;7.23;;
18166;SDS011;9208;42.688;23.404;2022-07-24T07:13:53;10.47;;;8.07;;
18166;SDS011;9208;42.688;23.404;2022-07-24T07:16:19;10.60;;;7.87;;
18166;SDS011;9208;42.688;23.404;2022-07-24T07:18:44;10.17;;;8.43;;
18166;SDS011;9208;42.688;23.404;2022-07-24T07:21:09;10.23;;;8.57;;
18166;SDS011;9208;42.688;23.404;2022-07-24T07:23:35;11.57;;;8.33;;
18166;SDS011;9208;42.688;23.404;2022-07-24T07:26:01;11.17;;;7.20;;
18166;SDS011;9208;42.688;23.404;2022-07-24T07:28:26;9.73;;;7.80;;
18166;SDS011;9208;42.688;23.404;2022-07-24T07:30:52;10.10;;;7.77;;
18166;SDS011;9208;42.688;23.404;2022-07-24T07:33:17;11.37;;;7.70;;
18166;SDS011;9208;42.688;23.404;2022-07-24T07:35:43;10.73;;;7.87;;
18166;SDS011;9208;42.688;23.404;2022-07-24T07:38:08;10.20;;;7.37;;
18166;SDS011;9208;42.688;23.404;2022-07-24T07:40:33;11.43;;;7.53;;
18166;SDS011;9208;42.688;23.404;2022-07-24T07:42:59;8.83;;;7.27;;
18166;SDS011;9208;42.688;23.404;2022-07-24T07:45:25;10.57;;;7.20;;
18166;SDS011;9208;42.688;23.404;2022-07-24T07:47:50;11.53;;;7.70;;
18166;SDS011;9208;42.688;23.404;2022-07-24T07:50:16;9.47;;;7.40;;
18166;SDS011;9208;42.688;23.404;2022-07-24T07:52:41;12.20;;;7.73;;
18166;SDS011;9208;42.688;23.404;2022-07-24T07:55:06;9.30;;;7.80;;
18166;SDS011;9208;42.688;23.404;2022-07-24T07:57:32;11.33;;;7.70;;
18166;SDS011;9208;42.688;23.404;2022-07-24T07:59:58;11.67;;;7.70;;
18166;SDS011;9208;42.688;23.404;2022-07-24T08:02:23;8.43;;;7.27;;
18166;SDS011;9208;42.688;23.404;2022-07-24T08:04:49;10.83;;;7.80;;
18166;SDS011;9208;42.688;23.404;2022-07-24T08:07:14;15.03;;;8.97;;
18166;SDS011;9208;42.688;23.404;2022-07-24T08:09:40;11.40;;;8.03;;
18166;SDS011;9208;42.688;23.404;2022-07-24T08:12:07;10.80;;;7.67;;
18166;SDS011;9208;42.688;23.404;2022-07-24T08:14:35;12.07;;;7.60;;
18166;SDS011;9208;42.688;23.404;2022-07-24T08:17:02;10.20;;;7.13;;
18166;SDS011;9208;42.688;23.404;2022-07-24T08:19:29;9.10;;;6.87;;
18166;SDS011;9208;42.688;23.404;2022-07-24T08:21:56;14.13;;;7.97;;
18166;SDS011;9208;42.688;23.404;2022-07-24T08:24:22;12.87;;;6.63;;
18166;SDS011;9208;42.688;23.404;2022-07-24T08:26:48;9.50;;;7.20;;
18166;SDS011;9208;42.688;23.404;2022-07-24T08:29:14;10.23;;;6.97;;
18166;SDS011;9208;42.688;23.404;2022-07-24T08:31:39;10.37;;;6.83;;
18166;SDS011;9208;42.688;23.404;2022-07-24T08:34:05;8.93;;;6.77;;
18166;SDS011;9208;42.688;23.404;2022-07-24T08:36:30;10.47;;;6.87;;
18166;SDS011;9208;42.688;23.404;2022-07-24T08:38:56;11.33;;;7.60;;
18166;SDS011;9208;42.688;23.404;2022-07-24T08:41:22;11.23;;;7.37;;
18166;SDS011;9208;42.688;23.404;2022-07-24T08:43:47;10.40;;;7.40;;
18166;SDS011;9208;42.688;23.404;2022-07-24T08:46:14;12.23;;;6.85;;
18166;SDS011;9208;42.688;23.404;2022-07-24T08:48:44;10.27;;;6.72;;
18166;SDS011;9208;42.688;23.404;2022-07-24T08:51:11;8.57;;;7.63;;
18166;SDS011;9208;42.688;23.404;2022-07-24T08:53:38;10.73;;;7.00;;
18166;SDS011;9208;42.688;23.404;2022-07-24T08:56:04;10.87;;;7.57;;
18166;SDS011;9208;42.688;23.404;2022-07-24T08:58:30;13.00;;;7.38;;
18166;SDS011;9208;42.688;23.404;2022-07-24T09:00:55;10.90;;;7.20;;
18166;SDS011;9208;42.688;23.404;2022-07-24T09:03:21;11.10;;;7.55;;
18166;SDS011;9208;42.688;23.404;2022-07-24T09:05:53;8.52;;;7.55;;
18166;SDS011;9208;42.688;23.404;2022-07-24T09:08:23;8.23;;;7.38;;
18166;SDS011;9208;42.688;23.404;2022-07-24T09:10:53;9.77;;;7.25;;
18166;SDS011;9208;42.688;23.404;2022-07-24T09:13:31;10.02;;;7.45;;
18166;SDS011;9208;42.688;23.404;2022-07-24T09:16:17;12.38;;;6.82;;
18166;SDS011;9208;42.688;23.404;2022-07-24T09:18:47;11.80;;;7.82;;
18166;SDS011;9208;42.688;23.404;2022-07-24T09:21:14;8.50;;;7.50;;
18166;SDS011;9208;42.688;23.404;2022-07-24T09:23:41;11.55;;;7.30;;
18166;SDS011;9208;42.688;23.404;2022-07-24T09:26:08;12.88;;;7.60;;
18166;SDS011;9208;42.688;23.404;2022-07-24T09:28:49;15.27;;;10.63;;
18166;SDS011;9208;42.688;23.404;2022-07-24T09:31:16;14.40;;;11.38;;
18166;SDS011;9208;42.688;23.404;2022-07-24T09:33:41;12.27;;;9.77;;
18166;SDS011;9208;42.688;23.404;2022-07-24T09:36:11;11.15;;;9.35;;
18166;SDS011;9208;42.688;23.404;2022-07-24T09:38:44;17.35;;;8.73;;
18166;SDS011;9208;42.688;23.404;2022-07-24T09:41:11;10.50;;;7.90;;
18166;SDS011;9208;42.688;23.404;2022-07-24T09:43:37;10.38;;;8.38;;
18166;SDS011;9208;42.688;23.404;2022-07-24T09:46:10;11.05;;;8.02;;
18166;SDS011;9208;42.688;23.404;2022-07-24T09:48:40;13.43;;;7.50;;
18166;SDS011;9208;42.688;23.404;2022-07-24T09:51:27;12.80;;;7.88;;
18166;SDS011;9208;42.688;23.404;2022-07-24T09:53:58;9.50;;;8.00;;
18166;SDS011;9208;42.688;23.404;2022-07-24T09:56:25;8.80;;;7.90;;
18166;SDS011;9208;42.688;23.404;2022-07-24T09:58:53;10.60;;;7.97;;
18166;SDS011;9208;42.688;23.404;2022-07-24T10:01:22;12.07;;;7.65;;
18166;SDS011;9208;42.688;23.404;2022-07-24T10:03:49;12.27;;;7.75;;
18166;SDS011;9208;42.688;23.404;2022-07-24T10:06:17;14.02;;;8.15;;
18166;SDS011;9208;42.688;23.404;2022-07-24T10:08:47;10.75;;;7.65;;
18166;SDS011;9208;42.688;23.404;2022-07-24T10:11:14;8.48;;;7.68;;
18166;SDS011;9208;42.688;23.404;2022-07-24T10:13:40;8.68;;;7.80;;
18166;SDS011;9208;42.688;23.404;2022-07-24T10:16:14;11.60;;;7.53;;
18166;SDS011;9208;42.688;23.404;2022-07-24T10:18:54;12.23;;;7.57;;
18166;SDS011;9208;42.688;23.404;2022-07-24T10:21:28;11.63;;;7.32;;
18166;SDS011;9208;42.688;23.404;2022-07-24T10:26:40;9.63;;;7.03;;
18166;SDS011;9208;42.688;23.404;2022-07-24T10:29:08;9.65;;;6.85;;
18166;SDS011;9208;42.688;23.404;2022-07-24T10:31:42;7.00;;;6.38;;
18166;SDS011;9208;42.688;23.404;2022-07-24T10:45:29;7.60;;;6.88;;
18166;SDS011;9208;42.688;23.404;2022-07-24T10:48:00;7.50;;;6.80;;
18166;SDS011;9208;42.688;23.404;2022-07-24T10:56:16;8.30;;;6.60;;
18166;SDS011;9208;42.688;23.404;2022-07-24T11:01:32;7.80;;;6.60;;
18166;SDS011;9208;42.688;23.404;2022-07-24T11:04:00;7.30;;;6.40;;
18166;SDS011;9208;42.688;23.404;2022-07-24T11:06:41;8.15;;;7.22;;
18166;SDS011;9208;42.688;23.404;2022-07-24T11:09:09;7.55;;;6.47;;
18166;SDS011;9208;42.688;23.404;2022-07-24T11:11:39;7.85;;;6.88;;
18166;SDS011;9208;42.688;23.404;2022-07-24T11:20:07;7.30;;;6.57;;
18166;SDS011;9208;42.688;23.404;2022-07-24T11:22:53;8.80;;;6.60;;
18166;SDS011;9208;42.688;23.404;2022-07-24T11:25:23;9.57;;;6.63;;
18166;SDS011;9208;42.688;23.404;2022-07-24T11:30:33;7.75;;;6.90;;
18166;SDS011;9208;42.688;23.404;2022-07-24T11:33:06;7.35;;;6.60;;
18166;SDS011;9208;42.688;23.404;2022-07-24T11:35:35;8.75;;;7.03;;
18166;SDS011;9208;42.688;23.404;2022-07-24T11:38:03;7.53;;;6.70;;
18166;SDS011;9208;42.688;23.404;2022-07-24T11:40:31;14.90;;;7.30;;
18166;SDS011;9208;42.688;23.404;2022-07-24T11:42:57;8.07;;;7.15;;
18166;SDS011;9208;42.688;23.404;2022-07-24T11:45:24;8.25;;;6.70;;
18166;SDS011;9208;42.688;23.404;2022-07-24T11:47:50;7.00;;;6.40;;
18166;SDS011;9208;42.688;23.404;2022-07-24T11:50:19;6.88;;;6.20;;
18166;SDS011;9208;42.688;23.404;2022-07-24T11:52:49;7.57;;;6.82;;
18166;SDS011;9208;42.688;23.404;2022-07-24T11:55:20;7.40;;;6.70;;
18166;SDS011;9208;42.688;23.404;2022-07-24T11:57:50;8.20;;;6.85;;
18166;SDS011;9208;42.688;23.404;2022-07-24T12:00:18;8.40;;;7.38;;
18166;SDS011;9208;42.688;23.404;2022-07-24T12:02:49;7.45;;;6.85;;
18166;SDS011;9208;42.688;23.404;2022-07-24T12:07:55;7.60;;;6.82;;
18166;SDS011;9208;42.688;23.404;2022-07-24T12:10:21;9.52;;;7.32;;
18166;SDS011;9208;42.688;23.404;2022-07-24T12:12:48;13.13;;;7.50;;
18166;SDS011;9208;42.688;23.404;2022-07-24T12:15:19;7.57;;;6.45;;
18166;SDS011;9208;42.688;23.404;2022-07-24T12:17:54;9.95;;;6.80;;
18166;SDS011;9208;42.688;23.404;2022-07-24T12:20:39;8.10;;;6.72;;
18166;SDS011;9208;42.688;23.404;2022-07-24T12:23:07;7.45;;;6.38;;
18166;SDS011;9208;42.688;23.404;2022-07-24T12:25:35;9.05;;;6.97;;
18166;SDS011;9208;42.688;23.404;2022-07-24T12:28:22;8.02;;;6.78;;
18166;SDS011;9208;42.688;23.404;2022-07-24T12:30:51;7.60;;;6.85;;
18166;SDS011;9208;42.688;23.404;2022-07-24T12:36:02;7.55;;;6.60;;
18166;SDS011;9208;42.688;23.404;2022-07-24T12:38:40;8.18;;;7.18;;
18166;SDS011;9208;42.688;23.404;2022-07-24T12:41:16;8.60;;;7.05;;
18166;SDS011;9208;42.688;23.404;2022-07-24T12:46:31;7.40;;;6.70;;
18166;SDS011;9208;42.688;23.404;2022-07-24T12:49:04;8.05;;;6.82;;
18166;SDS011;9208;42.688;23.404;2022-07-24T12:56:55;13.60;;;7.45;;
18166;SDS011;9208;42.688;23.404;2022-07-24T12:59:38;8.43;;;6.95;;
18166;SDS011;9208;42.688;23.404;2022-07-24T13:04:32;8.35;;;7.13;;
18166;SDS011;9208;42.688;23.404;2022-07-24T13:07:01;7.55;;;6.82;;
18166;SDS011;9208;42.688;23.404;2022-07-24T13:09:27;6.68;;;5.97;;
18166;SDS011;9208;42.688;23.404;2022-07-24T13:11:54;6.70;;;6.00;;
18166;SDS011;9208;42.688;23.404;2022-07-24T13:14:21;7.80;;;6.68;;
18166;SDS011;9208;42.688;23.404;2022-07-24T13:16:49;7.57;;;6.88;;
18166;SDS011;9208;42.688;23.404;2022-07-24T13:19:16;11.05;;;6.88;;
18166;SDS011;9208;42.688;23.404;2022-07-24T13:21:43;7.63;;;6.45;;
18166;SDS011;9208;42.688;23.404;2022-07-24T13:24:10;6.40;;;5.90;;
18166;SDS011;9208;42.688;23.404;2022-07-24T13:26:37;7.07;;;6.22;;
18166;SDS011;9208;42.688;23.404;2022-07-24T13:29:04;9.30;;;6.50;;
18166;SDS011;9208;42.688;23.404;2022-07-24T13:31:30;6.63;;;6.03;;
18166;SDS011;9208;42.688;23.404;2022-07-24T13:33:56;7.47;;;6.80;;
18166;SDS011;9208;42.688;23.404;2022-07-24T13:36:21;7.50;;;6.75;;
18166;SDS011;9208;42.688;23.404;2022-07-24T13:38:47;9.80;;;7.18;;
18166;SDS011;9208;42.688;23.404;2022-07-24T13:41:12;6.80;;;6.20;;
18166;SDS011;9208;42.688;23.404;2022-07-24T13:43:39;6.82;;;6.18;;
18166;SDS011;9208;42.688;23.404;2022-07-24T13:46:04;8.05;;;6.53;;
18166;SDS011;9208;42.688;23.404;2022-07-24T13:48:30;7.18;;;6.47;;
18166;SDS011;9208;42.688;23.404;2022-07-24T13:50:56;7.45;;;6.85;;
18166;SDS011;9208;42.688;23.404;2022-07-24T13:53:21;10.27;;;6.70;;
18166;SDS011;9208;42.688;23.404;2022-07-24T13:55:47;7.35;;;6.70;;
18166;SDS011;9208;42.688;23.404;2022-07-24T13:58:13;7.72;;;7.07;;
18166;SDS011;9208;42.688;23.404;2022-07-24T14:00:39;10.30;;;7.78;;
18166;SDS011;9208;42.688;23.404;2022-07-24T14:03:04;9.15;;;8.05;;
18166;SDS011;9208;42.688;23.404;2022-07-24T14:05:29;8.85;;;8.13;;
18166;SDS011;9208;42.688;23.404;2022-07-24T14:07:55;9.30;;;8.13;;
18166;SDS011;9208;42.688;23.404;2022-07-24T14:10:21;10.02;;;8.43;;
18166;SDS011;9208;42.688;23.404;2022-07-24T14:12:47;9.07;;;8.07;;
18166;SDS011;9208;42.688;23.404;2022-07-24T14:15:12;9.10;;;8.23;;
18166;SDS011;9208;42.688;23.404;2022-07-24T14:17:39;9.45;;;8.07;;
18166;SDS011;9208;42.688;23.404;2022-07-24T14:20:09;10.07;;;6.47;;
18166;SDS011;9208;42.688;23.404;2022-07-24T14:22:36;9.60;;;6.70;;
18166;SDS011;9208;42.688;23.404;2022-07-24T14:25:03;11.20;;;7.00;;
18166;SDS011;9208;42.688;23.404;2022-07-24T14:27:29;12.50;;;6.80;;
18166;SDS011;9208;42.688;23.404;2022-07-24T14:29:55;9.55;;;6.90;;
18166;SDS011;9208;42.688;23.404;2022-07-24T14:32:20;7.97;;;6.93;;
18166;SDS011;9208;42.688;23.404;2022-07-24T14:34:46;8.23;;;7.20;;
18166;SDS011;9208;42.688;23.404;2022-07-24T14:37:11;8.23;;;7.20;;
18166;SDS011;9208;42.688;23.404;2022-07-24T14:39:37;8.32;;;7.30;;
18166;SDS011;9208;42.688;23.404;2022-07-24T14:42:03;13.55;;;8.00;;
18166;SDS011;9208;42.688;23.404;2022-07-24T14:44:28;10.85;;;8.35;;
18166;SDS011;9208;42.688;23.404;2022-07-24T14:46:54;8.63;;;7.93;;
18166;SDS011;9208;42.688;23.404;2022-07-24T14:49:19;8.48;;;7.75;;
18166;SDS011;9208;42.688;23.404;2022-07-24T14:51:45;8.13;;;7.45;;
18166;SDS011;9208;42.688;23.404;2022-07-24T14:54:10;8.65;;;7.80;;
18166;SDS011;9208;42.688;23.404;2022-07-24T14:56:36;7.97;;;7.40;;
18166;SDS011;9208;42.688;23.404;2022-07-24T14:59:02;8.32;;;7.65;;
18166;SDS011;9208;42.688;23.404;2022-07-24T15:01:28;8.15;;;7.55;;
18166;SDS011;9208;42.688;23.404;2022-07-24T15:03:54;7.60;;;7.10;;
18166;SDS011;9208;42.688;23.404;2022-07-24T15:06:19;7.82;;;7.22;;
18166;SDS011;9208;42.688;23.404;2022-07-24T15:08:45;8.25;;;7.60;;
18166;SDS011;9208;42.688;23.404;2022-07-24T15:11:12;8.18;;;7.50;;
18166;SDS011;9208;42.688;23.404;2022-07-24T15:13:38;7.25;;;6.75;;
18166;SDS011;9208;42.688;23.404;2022-07-24T15:16:06;7.95;;;7.35;;
18166;SDS011;9208;42.688;23.404;2022-07-24T15:18:32;7.63;;;7.00;;
18166;SDS011;9208;42.688;23.404;2022-07-24T15:20:59;8.45;;;7.85;;
18166;SDS011;9208;42.688;23.404;2022-07-24T15:23:25;8.32;;;7.55;;
18166;SDS011;9208;42.688;23.404;2022-07-24T15:25:51;8.13;;;7.47;;